Terminal Aerodrome Forecast
Issued by NWS Duluth, MN

Home | Current Version | Previous Version | Text Only | Print | Product List | Glossary On
Versions: 1 2 3 4 5 6 7 8 9 10 11 12 13 14 15 16 17 18 19 20 21 22 23 24
000
FTUS43 KDLH 220943 AAE
TAFDLH
TAF AMD
KDLH 220943Z 2210/2306 VRB02KT P6SM SCT020
     FM221100 28002KT P6SM SKC
     FM221500 28008KT P6SM SCT100
     FM230200 21006KT P6SM SCT050 SCT100=

USA.gov is the U.S. government's official web portal to all federal, state and local government web resources and services.